createdAt,value
2023-03-17T00:04:58.566Z,0.5
2023-03-17T00:10:51.269Z,0.5
2023-03-17T00:16:28.583Z,0.5
2023-03-17T00:22:20.659Z,0.5
2023-03-17T00:28:14.288Z,0.6
2023-03-17T00:33:51.333Z,0.6
2023-03-17T00:44:49.741Z,0.6
2023-03-17T00:50:42.532Z,0.6
2023-03-17T00:56:34.945Z,0.6
2023-03-17T01:02:13.011Z,0.7
2023-03-17T01:08:14.787Z,0.7
2023-03-17T01:13:51.186Z,0.7
2023-03-17T01:19:28.997Z,0.7
2023-03-17T01:25:21.618Z,0.7
2023-03-17T01:31:13.664Z,0.7
2023-03-17T01:36:51.703Z,0.7
2023-03-17T01:42:14.001Z,0.8
2023-03-17T01:48:07.171Z,0.8
2023-03-17T01:54:00.118Z,0.8
2023-03-17T02:04:42.617Z,0.8
2023-03-17T02:10:49.221Z,0.8
2023-03-17T02:16:41.829Z,0.8
2023-03-17T02:22:34.069Z,0.8
2023-03-17T02:27:56.227Z,0.8
2023-03-17T02:33:33.478Z,0.8
2023-03-17T02:39:11.663Z,0.8
2023-03-17T02:44:49.074Z,0.8
2023-03-17T02:50:09.908Z,0.8
2023-03-17T02:56:02.257Z,0.8
2023-03-17T03:01:40.138Z,0.8
2023-03-17T03:07:32.672Z,0.8
2023-03-17T03:13:25.772Z,0.8
2023-03-17T03:19:19.580Z,0.9
2023-03-17T03:25:11.616Z,0.9
2023-03-17T03:31:03.823Z,0.8
2023-03-17T03:36:41.927Z,0.8
2023-03-17T03:42:19.161Z,0.8
2023-03-17T03:48:09.486Z,0.8
2023-03-17T03:53:46.133Z,0.7
2023-03-17T04:10:54.044Z,0.8
2023-03-17T04:16:47.220Z,0.8
2023-03-17T04:22:39.879Z,0.8
2023-03-17T04:28:34.605Z,0.8
2023-03-17T04:34:13.425Z,0.9
2023-03-17T04:40:08.891Z,0.9
2023-03-17T04:46:02.370Z,0.9
2023-03-17T04:51:43.339Z,0.9
2023-03-17T04:57:22.323Z,0.9
2023-03-17T05:03:42.659Z,0.9
2023-03-17T05:09:35.041Z,1
2023-03-17T05:15:27.154Z,1
2023-03-17T05:21:19.844Z,1.1
2023-03-17T05:27:11.912Z,1
2023-03-17T05:33:05.719Z,1.1
2023-03-17T05:38:58.094Z,1.2
2023-03-17T05:44:52.928Z,1.3
2023-03-17T05:50:46.218Z,1.4
2023-03-17T05:56:40.748Z,1.4
2023-03-17T06:02:18.228Z,1.6
2023-03-17T06:08:25.598Z,1.6
2023-03-17T06:14:02.674Z,1.7
2023-03-17T06:19:55.315Z,1.7
2023-03-17T06:25:57.459Z,1.8
2023-03-17T06:31:50.119Z,1.9
2023-03-17T06:37:57.317Z,2.1
2023-03-17T06:43:51.557Z,2.2
2023-03-17T06:49:44.584Z,2.3
2023-03-17T06:55:38.619Z,2.5
2023-03-17T07:01:48.475Z,2.7
2023-03-17T07:07:41.370Z,2.6
2023-03-17T07:13:33.541Z,2.8
2023-03-17T07:19:26.807Z,2.8
2023-03-17T07:25:19.334Z,3.3
2023-03-17T07:31:12.129Z,3.4
2023-03-17T07:36:34.999Z,3.5
2023-03-17T07:42:12.548Z,3.7
2023-03-17T07:48:07.511Z,3.9
2023-03-17T07:54:14.480Z,4.3
2023-03-17T08:00:07.645Z,4.4
2023-03-17T08:06:17.794Z,4.7
2023-03-17T08:12:09.716Z,4.9
2023-03-17T08:18:02.875Z,4.8
2023-03-17T08:23:57.468Z,4.9
2023-03-17T08:29:52.997Z,5.1
2023-03-17T08:35:48.110Z,4.8
2023-03-17T08:41:27.238Z,5.4
2023-03-17T08:47:04.837Z,5.6
2023-03-17T08:52:57.574Z,5.6
2023-03-17T08:58:35.034Z,5.4
2023-03-17T09:04:29.437Z,5.4
2023-03-17T09:10:44.323Z,6.1
2023-03-17T09:16:45.620Z,6.1
2023-03-17T09:22:27.132Z,6.3
2023-03-17T09:28:20.672Z,6
2023-03-17T09:34:14.937Z,6.2
2023-03-17T09:39:40.480Z,6.5
2023-03-17T09:45:34.274Z,6.4
2023-03-17T09:51:27.862Z,6.6
2023-03-17T09:57:21.860Z,6.6
2023-03-17T10:03:14.882Z,6.5
2023-03-17T10:09:20.353Z,6.6
2023-03-17T10:15:13.385Z,6.8
2023-03-17T10:21:08.226Z,6.8
2023-03-17T10:26:32.166Z,7.1
2023-03-17T10:32:26.154Z,7.1
2023-03-17T10:38:31.015Z,7.1
2023-03-17T10:44:22.974Z,7.4
2023-03-17T10:50:16.235Z,7.1
2023-03-17T10:56:09.113Z,7.4
2023-03-17T11:02:03.243Z,7.9
2023-03-17T11:07:57.436Z,8.1
2023-03-17T11:13:49.949Z,7.8
2023-03-17T11:19:41.868Z,8
2023-03-17T11:25:20.083Z,8.7
2023-03-17T11:30:57.824Z,8.9
2023-03-17T11:36:50.471Z,9
2023-03-17T11:42:43.914Z,8.5
2023-03-17T11:48:36.399Z,9
2023-03-17T11:54:29.792Z,10.3
2023-03-17T12:00:22.128Z,9.6
2023-03-17T12:06:15.898Z,10.1
2023-03-17T12:12:08.108Z,9.8
2023-03-17T12:18:03.028Z,9.9
2023-03-17T12:23:56.627Z,10.3
2023-03-17T12:29:33.687Z,11.1
2023-03-17T12:35:29.834Z,10.4
2023-03-17T12:41:23.570Z,11.4
2023-03-17T12:47:17.697Z,11.4
2023-03-17T12:53:10.955Z,12.9
2023-03-17T12:59:03.569Z,11.1
2023-03-17T13:05:00.024Z,10.3
2023-03-17T13:10:54.843Z,10.4
2023-03-17T13:16:32.547Z,8.8
2023-03-17T13:22:27.014Z,9.6
2023-03-17T13:28:24.989Z,9.1
2023-03-17T13:34:18.711Z,8.9
2023-03-17T13:40:27.498Z,8.4
2023-03-17T13:46:35.301Z,7.9
2023-03-17T13:52:34.451Z,8.1
2023-03-17T13:58:28.501Z,7.9
2023-03-17T14:04:22.241Z,7.8
2023-03-17T14:10:15.346Z,7.7
2023-03-17T14:16:17.791Z,7.9
2023-03-17T14:21:59.437Z,7.9
2023-03-17T14:27:52.681Z,7.4
2023-03-17T14:33:48.720Z,7.3
2023-03-17T14:39:26.308Z,7.1
2023-03-17T14:45:19.420Z,7.2
2023-03-17T14:51:12.087Z,7.2
2023-03-17T14:57:05.324Z,7.1
2023-03-17T15:02:59.669Z,7.1
2023-03-17T15:08:55.351Z,6.8
2023-03-17T15:14:48.590Z,6.7
2023-03-17T15:20:41.950Z,6.5
2023-03-17T15:26:35.793Z,6.4
2023-03-17T15:32:35.521Z,6.3
2023-03-17T15:38:35.237Z,6.3
2023-03-17T15:44:28.371Z,6.3
2023-03-17T15:50:21.262Z,6.1
2023-03-17T15:56:15.254Z,6
2023-03-17T16:02:09.661Z,5.9
2023-03-17T16:08:01.785Z,5.8
2023-03-17T16:13:58.116Z,5.6
2023-03-17T16:20:03.467Z,5.6
2023-03-17T16:26:01.897Z,5.5
2023-03-17T16:31:44.798Z,5.3
2023-03-17T16:37:36.756Z,5.2
2023-03-17T16:43:40.992Z,5
2023-03-17T16:49:34.459Z,4.9
2023-03-17T16:55:11.820Z,4.7
2023-03-17T17:01:05.622Z,4.6
2023-03-17T17:06:28.218Z,4.6
2023-03-17T17:12:05.108Z,4.4
2023-03-17T17:17:42.002Z,4.5
2023-03-17T17:23:18.692Z,4.3
2023-03-17T17:28:42.539Z,4.3
2023-03-17T17:34:21.032Z,4.3
2023-03-17T17:40:13.509Z,4.3
2023-03-17T17:46:07.462Z,4.2
2023-03-17T17:51:47.113Z,4.1
2023-03-17T17:57:39.782Z,4
2023-03-17T18:03:16.319Z,3.9
2023-03-17T18:08:38.220Z,3.9
2023-03-17T18:14:16.366Z,3.8
2023-03-17T18:19:52.869Z,2.8
2023-03-17T18:25:45.636Z,2.2
2023-03-17T18:31:39.484Z,1.9
2023-03-17T18:37:02.060Z,1.8
2023-03-17T18:43:08.840Z,1.6
2023-03-17T18:48:30.800Z,1.4
2023-03-17T18:54:07.722Z,1.3
2023-03-17T19:00:02.196Z,1.4
2023-03-17T19:05:55.485Z,1.9
2023-03-17T19:11:17.382Z,1.9
2023-03-17T19:17:09.842Z,2.4
2023-03-17T19:23:01.098Z,1.8
2023-03-17T19:28:37.956Z,1.4
2023-03-17T19:34:16.899Z,1.4
2023-03-17T19:39:55.495Z,1.2
2023-03-17T19:45:28.040Z,1.1
2023-03-17T19:51:06.196Z,1.1
2023-03-17T19:56:12.241Z,1
2023-03-17T20:02:05.269Z,0.9
2023-03-17T20:07:58.479Z,0.8
2023-03-17T20:13:51.293Z,1
2023-03-17T20:19:15.628Z,0.9
2023-03-17T20:24:21.775Z,1.2
2023-03-17T20:29:59.744Z,1.2
2023-03-17T20:35:39.883Z,1.1
2023-03-17T20:41:33.054Z,-0.4
2023-03-17T20:47:25.304Z,-0.8
2023-03-17T20:53:20.595Z,-0.7
2023-03-17T20:59:13.960Z,-0.7
2023-03-17T21:05:07.479Z,-0.8
2023-03-17T21:10:59.580Z,-0.8
2023-03-17T21:22:34.357Z,-0.5
2023-03-17T21:28:11.662Z,-0.4
2023-03-17T21:33:33.327Z,-0.4
2023-03-17T21:39:28.959Z,-0.5
2023-03-17T21:45:22.101Z,-0.5
2023-03-17T21:51:15.162Z,-0.3
2023-03-17T21:57:08.972Z,-0.2
2023-03-17T22:02:54.526Z,-0.7
2023-03-17T22:08:16.916Z,-0.7
2023-03-17T22:19:19.377Z,-1.1
2023-03-17T22:24:58.058Z,-1.3
2023-03-17T22:30:51.302Z,-1.3
2023-03-17T22:36:45.310Z,-1.1
2023-03-17T22:42:24.349Z,-1.6
2023-03-17T22:48:19.885Z,-1.6
2023-03-17T22:53:42.195Z,-1.4
2023-03-17T22:59:34.585Z,-1.2
2023-03-17T23:05:26.997Z,-1.3
2023-03-17T23:11:14.583Z,-1.3
2023-03-17T23:17:07.157Z,-1.4
2023-03-17T23:23:00.851Z,-1.6
2023-03-17T23:28:53.407Z,-1.6
2023-03-17T23:34:31.569Z,-1.8
2023-03-17T23:40:09.673Z,-1.9
2023-03-17T23:46:03.090Z,-2.1
2023-03-17T23:51:40.756Z,-2.1
2023-03-17T23:57:18.055Z,-2.1
